createdAt,value
2018-02-14T00:00:08.905Z,0.00
2018-02-14T00:01:08.821Z,0.00
2018-02-14T00:02:08.768Z,0.00
2018-02-14T00:03:08.714Z,0.00
2018-02-14T00:04:08.661Z,0.00
2018-02-14T00:05:08.607Z,0.00
2018-02-14T00:06:08.553Z,0.00
2018-02-14T00:07:08.500Z,0.00
2018-02-14T00:08:08.446Z,0.00
2018-02-14T00:09:08.392Z,0.00
2018-02-14T00:10:08.339Z,0.00
2018-02-14T00:11:08.285Z,0.00
2018-02-14T00:12:08.232Z,0.00
2018-02-14T00:13:08.178Z,0.00
2018-02-14T00:14:08.124Z,0.00
2018-02-14T00:15:08.071Z,0.00
2018-02-14T00:16:08.019Z,0.00
2018-02-14T00:17:07.964Z,0.00
2018-02-14T00:18:07.910Z,0.00
2018-02-14T00:19:07.857Z,0.00
2018-02-14T00:20:07.803Z,0.00
2018-02-14T00:21:07.750Z,0.00
2018-02-14T00:22:07.696Z,0.00
2018-02-14T00:23:07.642Z,0.00
2018-02-14T00:24:07.589Z,0.00
2018-02-14T00:25:07.538Z,0.00
2018-02-14T00:26:07.484Z,0.00
2018-02-14T00:27:07.428Z,0.00
2018-02-14T00:28:07.375Z,0.00
2018-02-14T00:29:07.323Z,0.00
2018-02-14T00:30:07.267Z,0.00
2018-02-14T00:31:07.217Z,0.00
2018-02-14T00:32:07.162Z,0.00
2018-02-14T00:33:07.105Z,0.00
2018-02-14T00:34:07.052Z,0.00
2018-02-14T00:35:06.999Z,0.00
2018-02-14T00:36:06.945Z,0.00
2018-02-14T00:37:06.891Z,0.00
2018-02-14T00:38:06.838Z,0.00
2018-02-14T00:39:06.784Z,0.00
2018-02-14T00:40:06.731Z,0.00
2018-02-14T00:41:06.676Z,0.00
2018-02-14T00:42:06.624Z,0.00
2018-02-14T00:43:06.570Z,0.00
2018-02-14T00:44:06.517Z,0.00
2018-02-14T00:45:06.462Z,0.00
2018-02-14T00:46:06.408Z,0.00
2018-02-14T00:47:06.355Z,0.00
2018-02-14T00:48:06.302Z,0.00
2018-02-14T00:49:06.248Z,0.00
2018-02-14T00:50:06.194Z,0.00
2018-02-14T00:51:06.141Z,0.00
2018-02-14T00:52:06.087Z,0.00
2018-02-14T00:53:06.033Z,0.00
2018-02-14T00:54:05.979Z,0.00
2018-02-14T00:55:05.926Z,0.00
2018-02-14T00:56:05.872Z,0.00
2018-02-14T00:57:05.818Z,0.00
2018-02-14T00:58:05.814Z,0.00
2018-02-14T00:59:05.711Z,0.00
2018-02-14T01:00:05.657Z,0.00
2018-02-14T01:01:05.604Z,0.00
2018-02-14T01:02:05.550Z,0.00
2018-02-14T01:03:05.496Z,0.00
2018-02-14T01:04:05.444Z,0.00
2018-02-14T01:05:05.389Z,0.00
2018-02-14T01:06:05.335Z,0.00
2018-02-14T01:07:05.282Z,0.00
2018-02-14T01:08:05.228Z,0.00
2018-02-14T01:09:05.173Z,0.00
2018-02-14T01:10:05.120Z,0.00
2018-02-14T01:11:05.067Z,0.00
2018-02-14T01:12:05.016Z,0.00
2018-02-14T01:13:04.958Z,0.00
2018-02-14T01:14:04.905Z,0.00
2018-02-14T01:15:04.851Z,0.00
2018-02-14T01:16:04.800Z,0.00
2018-02-14T01:17:04.743Z,0.00
2018-02-14T01:18:04.690Z,0.00
2018-02-14T01:19:04.636Z,0.00
2018-02-14T01:20:04.583Z,0.00
2018-02-14T01:21:04.528Z,0.00
2018-02-14T01:22:04.474Z,0.00
2018-02-14T01:23:04.422Z,0.00
2018-02-14T01:24:04.368Z,0.00
2018-02-14T01:25:04.313Z,0.00
2018-02-14T01:26:04.259Z,0.00
2018-02-14T01:27:04.206Z,0.00
2018-02-14T01:28:04.153Z,0.00
2018-02-14T01:29:04.098Z,0.00
2018-02-14T01:30:04.044Z,0.00
2018-02-14T01:31:03.991Z,0.00
2018-02-14T01:32:03.938Z,0.00
2018-02-14T01:33:03.883Z,0.00
2018-02-14T01:34:03.830Z,0.00
2018-02-14T01:35:03.777Z,0.00
2018-02-14T01:36:03.723Z,0.00
2018-02-14T01:37:03.669Z,0.00
2018-02-14T01:38:03.615Z,0.00
2018-02-14T01:39:03.562Z,0.00
2018-02-14T01:40:03.508Z,0.00
2018-02-14T01:41:03.504Z,0.00
2018-02-14T01:42:03.400Z,0.00
2018-02-14T01:43:03.347Z,0.00
2018-02-14T01:44:03.294Z,0.00
2018-02-14T01:45:03.240Z,0.00
2018-02-14T01:46:03.187Z,0.00
2018-02-14T01:47:03.132Z,0.00
2018-02-14T01:48:03.079Z,0.00
2018-02-14T01:49:03.025Z,0.00
2018-02-14T01:50:02.971Z,0.00
2018-02-14T01:51:02.918Z,0.00
2018-02-14T01:52:02.864Z,0.00
2018-02-14T01:53:02.810Z,0.00
2018-02-14T01:54:02.757Z,0.00
2018-02-14T01:55:02.703Z,0.00
2018-02-14T01:56:02.650Z,0.00
2018-02-14T01:57:02.595Z,0.00
2018-02-14T01:58:02.542Z,0.00
2018-02-14T01:59:02.489Z,0.00
2018-02-14T02:00:02.435Z,0.00
2018-02-14T02:01:02.381Z,0.00
2018-02-14T02:02:02.327Z,0.00
2018-02-14T02:03:02.274Z,0.00
2018-02-14T02:04:02.221Z,0.00
2018-02-14T02:05:02.216Z,0.00
2018-02-14T02:06:02.113Z,0.00
2018-02-14T02:07:02.060Z,0.00
2018-02-14T02:08:02.008Z,0.00
2018-02-14T02:09:01.952Z,0.00
2018-02-14T02:10:01.946Z,0.00
2018-02-14T02:11:01.845Z,0.00
2018-02-14T02:12:01.793Z,0.00
2018-02-14T02:13:01.738Z,0.00
2018-02-14T02:14:01.684Z,0.00
2018-02-14T02:15:01.631Z,0.00
2018-02-14T02:16:01.578Z,0.00
2018-02-14T02:17:01.523Z,0.00
2018-02-14T02:18:01.470Z,0.00
2018-02-14T02:19:01.417Z,0.00
2018-02-14T02:20:01.364Z,0.00
2018-02-14T02:21:01.312Z,0.00
2018-02-14T02:22:01.257Z,0.00
2018-02-14T02:23:01.202Z,0.00
2018-02-14T02:24:01.149Z,0.00
2018-02-14T02:25:01.094Z,0.00
2018-02-14T02:26:01.040Z,0.00
2018-02-14T02:27:00.987Z,0.00
2018-02-14T02:28:00.933Z,0.00
2018-02-14T02:29:00.879Z,0.00
2018-02-14T02:30:00.832Z,0.00
2018-02-14T02:31:00.774Z,0.00
2018-02-14T02:32:00.720Z,0.00
2018-02-14T02:33:00.670Z,0.00
2018-02-14T02:34:00.610Z,0.00
2018-02-14T02:35:00.558Z,0.00
2018-02-14T02:36:00.504Z,0.00
2018-02-14T02:37:00.450Z,0.00
2018-02-14T02:38:00.395Z,0.00
2018-02-14T02:39:00.342Z,0.00
2018-02-14T02:40:00.290Z,0.00
2018-02-14T02:41:00.234Z,0.00
2018-02-14T02:42:00.182Z,0.00
2018-02-14T02:43:00.128Z,0.00
2018-02-14T02:44:00.075Z,0.00
2018-02-14T02:45:00.039Z,0.00
2018-02-14T02:45:59.965Z,0.00
2018-02-14T02:46:59.912Z,0.00
2018-02-14T02:47:59.858Z,0.00
2018-02-14T02:48:59.803Z,0.00
2018-02-14T02:49:59.750Z,0.00
2018-02-14T02:50:59.697Z,0.00
2018-02-14T02:51:59.643Z,0.00
2018-02-14T02:52:59.589Z,0.00
2018-02-14T02:53:59.535Z,0.00
2018-02-14T02:54:59.482Z,0.00
2018-02-14T02:55:59.428Z,0.00
2018-02-14T02:56:59.374Z,0.00
2018-02-14T02:57:59.325Z,0.00
2018-02-14T02:58:59.266Z,0.00
2018-02-14T02:59:59.213Z,0.00
2018-02-14T03:00:59.159Z,0.00
2018-02-14T03:01:59.105Z,0.00
2018-02-14T03:02:59.052Z,0.00
2018-02-14T03:03:58.998Z,0.00
2018-02-14T03:04:58.943Z,0.00
2018-02-14T03:05:58.890Z,0.00
2018-02-14T03:06:58.836Z,0.00
2018-02-14T03:07:58.783Z,0.00
2018-02-14T03:08:58.728Z,0.00
2018-02-14T03:09:58.674Z,0.00
2018-02-14T03:10:58.620Z,0.00
2018-02-14T03:11:58.569Z,0.00
2018-02-14T03:12:58.511Z,0.00
2018-02-14T03:13:58.459Z,0.00
2018-02-14T03:14:58.405Z,0.00
2018-02-14T03:15:58.351Z,0.00
2018-02-14T03:16:58.299Z,0.00
2018-02-14T03:17:58.243Z,0.00
2018-02-14T03:18:58.189Z,0.00
2018-02-14T03:19:58.135Z,0.00
2018-02-14T03:20:58.081Z,0.00
2018-02-14T03:21:58.026Z,0.00
2018-02-14T03:22:57.973Z,0.00
2018-02-14T03:23:57.919Z,0.00
2018-02-14T03:24:57.864Z,0.00
2018-02-14T03:25:57.810Z,0.00
2018-02-14T03:26:57.757Z,0.00
2018-02-14T03:27:57.703Z,0.00
2018-02-14T03:28:57.693Z,0.00
2018-02-14T03:29:57.596Z,0.00
2018-02-14T03:30:57.541Z,0.00
2018-02-14T03:31:57.486Z,0.00
2018-02-14T03:32:57.434Z,0.00
2018-02-14T03:33:57.377Z,0.00
2018-02-14T03:34:57.324Z,0.00
2018-02-14T03:35:57.270Z,0.00
2018-02-14T03:36:57.214Z,0.00
2018-02-14T03:37:57.161Z,0.00
2018-02-14T03:38:57.106Z,0.00
2018-02-14T03:39:57.052Z,0.00
2018-02-14T03:40:56.997Z,0.00
2018-02-14T03:41:56.944Z,0.00
2018-02-14T03:42:56.898Z,0.00
2018-02-14T03:43:56.836Z,0.00
2018-02-14T03:44:56.781Z,0.00
2018-02-14T03:45:56.726Z,0.00
2018-02-14T03:46:56.673Z,0.00
2018-02-14T03:47:56.619Z,0.00
2018-02-14T03:48:56.564Z,0.00
2018-02-14T03:49:56.510Z,0.00
2018-02-14T03:50:56.456Z,0.00
2018-02-14T03:51:56.403Z,0.00
2018-02-14T03:52:56.348Z,0.00
2018-02-14T03:53:56.294Z,0.00
2018-02-14T03:54:56.240Z,0.00
2018-02-14T03:55:56.191Z,0.00
2018-02-14T03:56:56.132Z,0.00
2018-02-14T03:57:56.078Z,0.00
2018-02-14T03:58:56.025Z,0.00
2018-02-14T03:59:55.971Z,0.00
2018-02-14T04:00:55.916Z,0.00
2018-02-14T04:01:55.863Z,0.00
2018-02-14T04:02:55.809Z,0.00
2018-02-14T04:03:55.755Z,0.00
2018-02-14T04:04:55.701Z,0.00
2018-02-14T04:05:55.647Z,0.00
2018-02-14T04:06:55.593Z,0.00
2018-02-14T04:07:55.542Z,0.00
2018-02-14T04:08:55.485Z,0.00
2018-02-14T04:09:55.432Z,0.00
2018-02-14T04:10:55.378Z,0.00
2018-02-14T04:11:55.324Z,0.00
2018-02-14T04:12:55.270Z,0.00
2018-02-14T04:13:55.218Z,0.00
2018-02-14T04:14:55.162Z,0.00
2018-02-14T04:15:55.109Z,0.00
2018-02-14T04:16:55.056Z,0.00
2018-02-14T04:17:55.004Z,0.00
2018-02-14T04:18:54.947Z,0.00
2018-02-14T04:19:54.894Z,0.00
2018-02-14T04:20:54.838Z,0.00
2018-02-14T04:21:54.785Z,0.00
2018-02-14T04:22:54.732Z,0.00
2018-02-14T04:23:54.679Z,0.00
2018-02-14T04:24:54.623Z,0.00
2018-02-14T04:25:54.569Z,0.00
2018-02-14T04:26:54.516Z,0.00
2018-02-14T04:27:54.462Z,0.00
2018-02-14T04:28:54.415Z,0.00
2018-02-14T04:29:54.354Z,0.00
2018-02-14T04:30:54.300Z,0.00
2018-02-14T04:31:54.246Z,0.00
2018-02-14T04:32:54.192Z,0.00
2018-02-14T04:33:54.138Z,0.00
2018-02-14T04:34:54.083Z,0.00
2018-02-14T04:35:54.030Z,0.00
2018-02-14T04:36:53.975Z,0.00
2018-02-14T04:37:53.922Z,0.00
2018-02-14T04:38:53.867Z,0.00
2018-02-14T04:39:53.814Z,0.00
2018-02-14T04:40:53.759Z,0.00
2018-02-14T04:41:53.706Z,0.00
2018-02-14T04:42:53.652Z,0.00
2018-02-14T04:43:53.598Z,0.00
2018-02-14T04:44:53.550Z,0.00
2018-02-14T04:45:53.489Z,0.00
2018-02-14T04:46:53.436Z,0.00
2018-02-14T04:47:53.381Z,0.00
2018-02-14T04:48:53.326Z,0.00
2018-02-14T04:49:53.273Z,0.00
2018-02-14T04:50:53.219Z,0.00
2018-02-14T04:51:53.165Z,0.00
2018-02-14T04:52:53.110Z,0.00
2018-02-14T04:53:53.057Z,0.00
2018-02-14T04:54:53.003Z,0.00
2018-02-14T04:55:52.949Z,0.00
2018-02-14T04:56:52.894Z,0.00
2018-02-14T04:57:52.840Z,0.00
2018-02-14T04:58:52.786Z,0.00
2018-02-14T04:59:52.733Z,0.00
2018-02-14T05:00:52.678Z,0.00
2018-02-14T05:01:52.624Z,0.00
2018-02-14T05:02:52.571Z,0.00
2018-02-14T05:03:52.517Z,4.00
2018-02-14T05:04:52.471Z,4.00
2018-02-14T05:05:52.408Z,4.00
2018-02-14T05:06:52.354Z,4.00
2018-02-14T05:07:52.300Z,4.00
2018-02-14T05:08:52.246Z,4.00
2018-02-14T05:09:52.192Z,0.00
2018-02-14T05:10:52.170Z,0.00
2018-02-14T05:11:52.085Z,0.00
2018-02-14T05:12:52.030Z,0.00
2018-02-14T05:13:51.975Z,0.00
2018-02-14T05:14:51.922Z,0.00
2018-02-14T05:15:51.868Z,0.00
2018-02-14T05:16:51.813Z,0.00
2018-02-14T05:17:51.759Z,0.00
2018-02-14T05:18:51.738Z,0.00
2018-02-14T05:19:51.652Z,0.00
2018-02-14T05:20:51.647Z,0.00
2018-02-14T05:21:51.543Z,0.00
2018-02-14T05:22:51.489Z,0.00
2018-02-14T05:23:51.436Z,0.00
2018-02-14T05:24:51.380Z,0.00
2018-02-14T05:25:51.327Z,0.00
2018-02-14T05:26:51.273Z,0.00
2018-02-14T05:27:51.219Z,0.00
2018-02-14T05:28:51.166Z,0.00
2018-02-14T05:29:51.110Z,0.00
2018-02-14T05:30:51.107Z,0.00
2018-02-14T05:31:51.003Z,0.00
2018-02-14T05:32:50.948Z,0.00
2018-02-14T05:33:50.895Z,0.00
2018-02-14T05:34:50.847Z,0.00
2018-02-14T05:35:50.787Z,0.00
2018-02-14T05:36:50.732Z,0.00
2018-02-14T05:37:50.677Z,0.00
2018-02-14T05:38:50.624Z,0.00
2018-02-14T05:39:50.570Z,0.00
2018-02-14T05:40:50.515Z,0.00
2018-02-14T05:41:50.461Z,0.00
2018-02-14T05:42:50.407Z,0.00
2018-02-14T05:43:50.354Z,0.00
2018-02-14T05:44:50.299Z,0.00
2018-02-14T05:45:50.245Z,0.00
2018-02-14T05:46:50.191Z,0.00
2018-02-14T05:47:50.137Z,4.00
2018-02-14T05:48:50.083Z,4.00
2018-02-14T05:49:50.032Z,4.00
2018-02-14T05:50:49.981Z,0.00
2018-02-14T05:51:49.921Z,4.00
2018-02-14T05:52:49.866Z,4.00
2018-02-14T05:53:49.813Z,4.00
2018-02-14T05:54:49.758Z,4.00
2018-02-14T05:55:49.704Z,4.00
2018-02-14T05:56:49.650Z,8.00
2018-02-14T05:57:49.596Z,8.00
2018-02-14T05:58:49.542Z,8.00
2018-02-14T05:59:49.492Z,12.00
2018-02-14T06:00:49.436Z,16.00
2018-02-14T06:01:49.380Z,16.00
2018-02-14T06:02:49.325Z,20.00
2018-02-14T06:03:49.272Z,20.00
2018-02-14T06:04:49.217Z,24.00
2018-02-14T06:05:49.164Z,32.00
2018-02-14T06:06:49.109Z,36.00
2018-02-14T06:07:49.055Z,44.00
2018-02-14T06:08:49.000Z,48.00
2018-02-14T06:09:48.947Z,56.00
2018-02-14T06:10:48.892Z,64.00
2018-02-14T06:11:48.838Z,76.00
2018-02-14T06:12:48.782Z,84.00
2018-02-14T06:13:48.732Z,96.00
2018-02-14T06:14:48.677Z,108.00
2018-02-14T06:15:48.622Z,124.00
2018-02-14T06:16:48.567Z,136.00
2018-02-14T06:17:48.512Z,152.00
2018-02-14T06:18:48.459Z,172.00
2018-02-14T06:19:48.405Z,188.00
2018-02-14T06:20:48.350Z,212.00
2018-02-14T06:21:48.297Z,232.00
2018-02-14T06:22:48.243Z,252.00
2018-02-14T06:23:48.189Z,280.00
2018-02-14T06:24:48.133Z,304.00
2018-02-14T06:25:48.080Z,336.00
2018-02-14T06:26:48.026Z,360.00
2018-02-14T06:27:47.972Z,392.00
2018-02-14T06:28:47.917Z,424.00
2018-02-14T06:29:47.867Z,464.00
2018-02-14T06:30:47.810Z,500.00
2018-02-14T06:31:47.755Z,536.00
2018-02-14T06:32:47.703Z,576.00
2018-02-14T06:33:47.647Z,616.00
2018-02-14T06:34:47.593Z,660.00
2018-02-14T06:35:47.538Z,704.00
2018-02-14T06:36:47.484Z,748.00
2018-02-14T06:37:47.430Z,800.00
2018-02-14T06:38:47.376Z,852.00
2018-02-14T06:39:47.329Z,904.00
2018-02-14T06:40:47.268Z,956.00
2018-02-14T06:41:47.214Z,1012.00
2018-02-14T06:42:47.160Z,1064.00
2018-02-14T06:43:47.106Z,1120.00
2018-02-14T06:44:47.052Z,1176.00
2018-02-14T06:45:46.998Z,1236.00
2018-02-14T06:46:46.944Z,1296.00
2018-02-14T06:47:46.891Z,1356.00
2018-02-14T06:48:46.836Z,1416.00
2018-02-14T06:49:46.783Z,1480.00
2018-02-14T06:50:46.729Z,1540.00
2018-02-14T06:51:46.675Z,1604.00
2018-02-14T06:52:46.621Z,1668.00
2018-02-14T06:53:46.567Z,1732.00
2018-02-14T06:54:46.515Z,1804.00
2018-02-14T06:55:46.460Z,1868.00
2018-02-14T06:56:46.406Z,1940.00
2018-02-14T06:57:46.352Z,2012.00
2018-02-14T06:58:46.298Z,2080.00
2018-02-14T06:59:46.248Z,2152.00
2018-02-14T07:00:46.190Z,2220.00
2018-02-14T07:01:46.136Z,2288.00
2018-02-14T07:02:46.085Z,2352.00
2018-02-14T07:03:46.030Z,2416.00
2018-02-14T07:04:45.979Z,2480.00
2018-02-14T07:05:45.924Z,2552.00
2018-02-14T07:06:45.870Z,2716.00
2018-02-14T07:07:45.815Z,2884.00
2018-02-14T07:08:45.761Z,2948.00
2018-02-14T07:09:45.708Z,2992.00
2018-02-14T07:10:45.654Z,3068.00
2018-02-14T07:11:45.601Z,3712.00
2018-02-14T07:12:45.548Z,5864.00
2018-02-14T07:13:45.493Z,7680.00
2018-02-14T07:14:45.491Z,8048.00
2018-02-14T07:15:45.387Z,8316.00
2018-02-14T07:16:45.333Z,8600.00
2018-02-14T07:17:45.281Z,8928.00
2018-02-14T07:18:45.228Z,9256.00
2018-02-14T07:19:45.176Z,9560.00
2018-02-14T07:20:45.122Z,9824.00
2018-02-14T07:21:45.070Z,10080.00
2018-02-14T07:22:45.018Z,10392.00
2018-02-14T07:23:44.966Z,10700.00
2018-02-14T07:24:44.914Z,10928.00
2018-02-14T07:25:44.863Z,11360.00
2018-02-14T07:26:44.812Z,11648.00
2018-02-14T07:27:44.763Z,11968.00
2018-02-14T07:28:44.710Z,12320.00
2018-02-14T07:29:44.660Z,12736.00
2018-02-14T07:30:44.615Z,13184.00
2018-02-14T07:31:44.560Z,13760.00
2018-02-14T07:32:44.509Z,14112.00
2018-02-14T07:33:44.460Z,14304.00
2018-02-14T07:34:44.409Z,14464.00
2018-02-14T07:35:44.361Z,14848.00
2018-02-14T07:36:44.311Z,15008.00
2018-02-14T07:37:44.261Z,16416.00
2018-02-14T07:38:44.214Z,17920.00
2018-02-14T07:39:44.166Z,19168.00
2018-02-14T07:40:44.212Z,19648.00
2018-02-14T07:41:44.068Z,19840.00
2018-02-14T07:42:44.020Z,20224.00
2018-02-14T07:43:43.972Z,21664.00
2018-02-14T07:44:43.923Z,21312.00
2018-02-14T07:45:43.875Z,21376.00
2018-02-14T07:46:43.827Z,21472.00
2018-02-14T07:47:43.780Z,20800.00
2018-02-14T07:48:43.732Z,20480.00
2018-02-14T07:49:43.687Z,20448.00
2018-02-14T07:50:43.639Z,20288.00
2018-02-14T07:51:43.591Z,20416.00
2018-02-14T07:52:43.543Z,20512.00
2018-02-14T07:53:43.496Z,20672.00
2018-02-14T07:54:43.449Z,20960.00
2018-02-14T07:55:43.403Z,21248.00
2018-02-14T07:56:43.357Z,21376.00
2018-02-14T07:57:43.310Z,21728.00
2018-02-14T07:58:43.264Z,22240.00
2018-02-14T07:59:43.217Z,22848.00
2018-02-14T08:00:43.172Z,24352.00
2018-02-14T08:01:43.129Z,25760.00
2018-02-14T08:02:43.081Z,26144.00
2018-02-14T08:03:43.038Z,25888.00
2018-02-14T08:04:42.990Z,25600.00
2018-02-14T08:05:42.952Z,25152.00
2018-02-14T08:06:42.902Z,25312.00
2018-02-14T08:07:42.855Z,24800.00
2018-02-14T08:08:42.810Z,25184.00
2018-02-14T08:09:42.766Z,25376.00
2018-02-14T08:10:42.722Z,25344.00
2018-02-14T08:11:42.677Z,25632.00
2018-02-14T08:12:42.639Z,26240.00
2018-02-14T08:13:42.588Z,27648.00
2018-02-14T08:14:42.546Z,28896.00
2018-02-14T08:15:42.500Z,29664.00
2018-02-14T08:16:42.456Z,30048.00
2018-02-14T08:17:42.412Z,30240.00
2018-02-14T08:18:42.368Z,30272.00
2018-02-14T08:19:42.326Z,30720.00
2018-02-14T08:20:42.282Z,31104.00
2018-02-14T08:21:42.239Z,31264.00
2018-02-14T08:22:42.195Z,32000.00
2018-02-14T08:23:42.153Z,31808.00
2018-02-14T08:24:42.110Z,32544.00
2018-02-14T08:25:42.070Z,33088.00
2018-02-14T08:26:42.025Z,33728.00
2018-02-14T08:27:41.983Z,34016.00
2018-02-14T08:28:41.940Z,34080.00
2018-02-14T08:29:41.905Z,34944.00
2018-02-14T08:30:41.856Z,35840.00
2018-02-14T08:31:41.816Z,36352.00
2018-02-14T08:32:41.776Z,36864.00
2018-02-14T08:33:41.732Z,38144.00
2018-02-14T08:34:41.691Z,38688.00
2018-02-14T08:35:41.654Z,37600.00
2018-02-14T08:36:41.608Z,37568.00
2018-02-14T08:37:41.567Z,37920.00
2018-02-14T08:38:41.527Z,38336.00
2018-02-14T08:39:41.489Z,38624.00
2018-02-14T08:40:41.444Z,38976.00
2018-02-14T08:41:41.404Z,38528.00
2018-02-14T08:42:41.367Z,39008.00
2018-02-14T08:43:41.330Z,39552.00
2018-02-14T08:44:41.335Z,39488.00
2018-02-14T08:45:41.243Z,39232.00
2018-02-14T08:46:41.204Z,39808.00
2018-02-14T08:47:41.163Z,40288.00
2018-02-14T08:48:41.124Z,41504.00
2018-02-14T08:49:41.084Z,40672.00
2018-02-14T08:50:41.044Z,40544.00
2018-02-14T08:51:41.005Z,41792.00
2018-02-14T08:52:40.965Z,43488.00
2018-02-14T08:53:40.925Z,42400.00
2018-02-14T08:54:40.886Z,41440.00
2018-02-14T08:55:40.847Z,41184.00
2018-02-14T08:56:40.807Z,40992.00
2018-02-14T08:57:40.768Z,40704.00
2018-02-14T08:58:40.728Z,40416.00
2018-02-14T08:59:40.690Z,39808.00
2018-02-14T09:00:40.650Z,38944.00
2018-02-14T09:01:40.614Z,38720.00
2018-02-14T09:02:40.574Z,39136.00
2018-02-14T09:03:40.535Z,40576.00
2018-02-14T09:04:40.496Z,39744.00
2018-02-14T09:05:40.461Z,39168.00
2018-02-14T09:06:40.419Z,38976.00
2018-02-14T09:07:40.481Z,36960.00
2018-02-14T09:08:40.344Z,35648.00
2018-02-14T09:09:40.304Z,35968.00
2018-02-14T09:10:40.264Z,35424.00
2018-02-14T09:11:40.226Z,35232.00
2018-02-14T09:12:40.185Z,35488.00
2018-02-14T09:13:40.148Z,35456.00
2018-02-14T09:14:40.109Z,36512.00
2018-02-14T09:15:40.070Z,38304.00
2018-02-14T09:16:40.029Z,38304.00
2018-02-14T09:17:40.040Z,38624.00
2018-02-14T09:18:39.952Z,39008.00
2018-02-14T09:19:39.912Z,39200.00
2018-02-14T09:20:39.871Z,38784.00
2018-02-14T09:21:39.833Z,38144.00
2018-02-14T09:22:39.794Z,35936.00
2018-02-14T09:23:39.754Z,35808.00
2018-02-14T09:24:39.713Z,38528.00
2018-02-14T09:25:39.673Z,37184.00
2018-02-14T09:26:39.633Z,37440.00
2018-02-14T09:27:39.598Z,36608.00
2018-02-14T09:28:39.551Z,30816.00
2018-02-14T09:29:39.510Z,30048.00
2018-02-14T09:30:39.471Z,36512.00
2018-02-14T09:31:39.431Z,36736.00
2018-02-14T09:32:39.390Z,36832.00
2018-02-14T09:33:39.349Z,36704.00
2018-02-14T09:34:39.308Z,34976.00
2018-02-14T09:35:39.267Z,34144.00
2018-02-14T09:36:39.226Z,35584.00
2018-02-14T09:37:39.185Z,37120.00
2018-02-14T09:38:39.143Z,36960.00
2018-02-14T09:39:39.103Z,36000.00
2018-02-14T09:40:39.061Z,32608.00
2018-02-14T09:41:39.022Z,28544.00
2018-02-14T09:42:38.979Z,24736.00
2018-02-14T09:43:38.938Z,11076.00
2018-02-14T09:44:38.896Z,7764.00
2018-02-14T09:45:38.855Z,7736.00
2018-02-14T09:46:38.813Z,7676.00
2018-02-14T09:47:38.770Z,7672.00
2018-02-14T09:48:38.726Z,7684.00
2018-02-14T09:49:38.685Z,7680.00
2018-02-14T09:50:38.643Z,7648.00
2018-02-14T09:51:38.600Z,7652.00
2018-02-14T09:52:38.556Z,7616.00
2018-02-14T09:53:38.511Z,7540.00
2018-02-14T09:54:38.469Z,7456.00
2018-02-14T09:55:38.425Z,7444.00
2018-02-14T09:56:38.380Z,7436.00
2018-02-14T09:57:38.336Z,7440.00
2018-02-14T09:58:38.292Z,7420.00
2018-02-14T09:59:38.252Z,7376.00
2018-02-14T10:00:38.246Z,7376.00
2018-02-14T10:01:38.157Z,7360.00
2018-02-14T10:02:38.113Z,7316.00
2018-02-14T10:03:38.068Z,7260.00
2018-02-14T10:04:38.022Z,7236.00
2018-02-14T10:05:37.975Z,7212.00
2018-02-14T10:06:37.969Z,7228.00
2018-02-14T10:07:37.887Z,7236.00
2018-02-14T10:08:37.839Z,7192.00
2018-02-14T10:09:37.794Z,7160.00
2018-02-14T10:10:37.750Z,7160.00
2018-02-14T10:11:37.702Z,7148.00
2018-02-14T10:12:37.656Z,7108.00
2018-02-14T10:13:37.610Z,7068.00
2018-02-14T10:14:37.568Z,7012.00
2018-02-14T10:15:37.518Z,6976.00
2018-02-14T10:16:37.470Z,6940.00
2018-02-14T10:17:37.424Z,6876.00
2018-02-14T10:18:37.381Z,6864.00
2018-02-14T10:19:37.331Z,6848.00
2018-02-14T10:20:37.284Z,6820.00
2018-02-14T10:21:37.237Z,6792.00
2018-02-14T10:22:37.192Z,6808.00
2018-02-14T10:23:37.147Z,6816.00
2018-02-14T10:24:37.095Z,6804.00
2018-02-14T10:25:37.048Z,6804.00
2018-02-14T10:26:37.053Z,6816.00
2018-02-14T10:27:36.955Z,6800.00
2018-02-14T10:28:36.908Z,6764.00
2018-02-14T10:29:36.860Z,6732.00
2018-02-14T10:30:36.813Z,6668.00
2018-02-14T10:31:36.766Z,6656.00
2018-02-14T10:32:36.730Z,6628.00
2018-02-14T10:33:36.668Z,6612.00
2018-02-14T10:34:36.625Z,6572.00
2018-02-14T10:35:36.574Z,6584.00
2018-02-14T10:36:36.526Z,6584.00
2018-02-14T10:37:36.482Z,6564.00
2018-02-14T10:38:36.429Z,6556.00
2018-02-14T10:39:36.382Z,6492.00
2018-02-14T10:40:36.333Z,6500.00
2018-02-14T10:41:36.284Z,6528.00
2018-02-14T10:42:36.237Z,6492.00
2018-02-14T10:43:36.188Z,6436.00
2018-02-14T10:44:36.137Z,6380.00
2018-02-14T10:45:36.090Z,6404.00
2018-02-14T10:46:36.045Z,6368.00
2018-02-14T10:47:35.992Z,6372.00
2018-02-14T10:48:35.945Z,6272.00
2018-02-14T10:49:35.896Z,6268.00
2018-02-14T10:50:35.848Z,6292.00
2018-02-14T10:51:35.799Z,6296.00
2018-02-14T10:52:35.751Z,6268.00
2018-02-14T10:53:35.701Z,6252.00
2018-02-14T10:54:35.651Z,6228.00
2018-02-14T10:55:35.607Z,6228.00
2018-02-14T10:56:35.558Z,6216.00
2018-02-14T10:57:35.506Z,6200.00
2018-02-14T10:58:35.457Z,6184.00
2018-02-14T10:59:35.408Z,6184.00
2018-02-14T11:00:35.363Z,6148.00
2018-02-14T11:01:35.312Z,6076.00
2018-02-14T11:02:35.262Z,6032.00
2018-02-14T11:03:35.214Z,6008.00
2018-02-14T11:04:35.164Z,5964.00
2018-02-14T11:05:35.116Z,5912.00
2018-02-14T11:06:35.068Z,5920.00
2018-02-14T11:07:35.019Z,5916.00
2018-02-14T11:08:34.968Z,5864.00
2018-02-14T11:09:34.921Z,5812.00
2018-02-14T11:10:34.873Z,5800.00
2018-02-14T11:11:34.826Z,5760.00
2018-02-14T11:12:34.783Z,5788.00
2018-02-14T11:13:34.726Z,5792.00
2018-02-14T11:14:34.677Z,5760.00
2018-02-14T11:15:34.629Z,5760.00
2018-02-14T11:16:34.579Z,5696.00
2018-02-14T11:17:34.530Z,5624.00
2018-02-14T11:18:34.483Z,5572.00
2018-02-14T11:19:34.434Z,5460.00
2018-02-14T11:20:34.384Z,5360.00
2018-02-14T11:21:34.336Z,5364.00
2018-02-14T11:22:34.290Z,5356.00
2018-02-14T11:23:34.238Z,5360.00
2018-02-14T11:24:34.190Z,5316.00
2018-02-14T11:25:34.141Z,5172.00
2018-02-14T11:26:34.093Z,5048.00
2018-02-14T11:27:34.045Z,5004.00
2018-02-14T11:28:33.995Z,5020.00
2018-02-14T11:29:33.946Z,4992.00
2018-02-14T11:30:33.901Z,5104.00
2018-02-14T11:31:33.852Z,5052.00
2018-02-14T11:32:33.801Z,5000.00
2018-02-14T11:33:33.753Z,4984.00
2018-02-14T11:34:33.754Z,4964.00
2018-02-14T11:35:33.656Z,5004.00
2018-02-14T11:36:33.608Z,5008.00
2018-02-14T11:37:33.558Z,4976.00
2018-02-14T11:38:33.509Z,4964.00
2018-02-14T11:39:33.463Z,4904.00
2018-02-14T11:40:33.412Z,4864.00
2018-02-14T11:41:33.393Z,4844.00
2018-02-14T11:42:33.316Z,4792.00
2018-02-14T11:43:33.266Z,4784.00
2018-02-14T11:44:33.217Z,4844.00
2018-02-14T11:45:33.168Z,4812.00
2018-02-14T11:46:33.120Z,4804.00
2018-02-14T11:47:33.070Z,4808.00
2018-02-14T11:48:33.023Z,4816.00
2018-02-14T11:49:32.975Z,4888.00
2018-02-14T11:50:32.924Z,4932.00
2018-02-14T11:51:32.874Z,4964.00
2018-02-14T11:52:32.824Z,4524.00
2018-02-14T11:53:32.777Z,4940.00
2018-02-14T11:54:32.727Z,5344.00
2018-02-14T11:55:32.704Z,5284.00
2018-02-14T11:56:32.678Z,4916.00
2018-02-14T11:57:32.582Z,4792.00
2018-02-14T11:58:32.532Z,4748.00
2018-02-14T11:59:32.484Z,4440.00
2018-02-14T12:00:32.434Z,4172.00
2018-02-14T12:01:32.389Z,4268.00
2018-02-14T12:02:32.336Z,4156.00
2018-02-14T12:03:32.287Z,4452.00
2018-02-14T12:04:32.238Z,4252.00
2018-02-14T12:05:32.192Z,4688.00
2018-02-14T12:06:32.140Z,4500.00
2018-02-14T12:07:32.092Z,4136.00
2018-02-14T12:08:32.142Z,4248.00
2018-02-14T12:09:31.993Z,4552.00
2018-02-14T12:10:31.944Z,4596.00
2018-02-14T12:11:31.895Z,4664.00
2018-02-14T12:12:31.851Z,4612.00
2018-02-14T12:13:31.796Z,4404.00
2018-02-14T12:14:31.747Z,4584.00
2018-02-14T12:15:31.698Z,4232.00
2018-02-14T12:16:31.648Z,4552.00
2018-02-14T12:17:31.600Z,4100.00
2018-02-14T12:18:31.552Z,4180.00
2018-02-14T12:19:31.503Z,4348.00
2018-02-14T12:20:31.457Z,4552.00
2018-02-14T12:21:31.405Z,5352.00
2018-02-14T12:22:31.355Z,5648.00
2018-02-14T12:23:31.307Z,5912.00
2018-02-14T12:24:31.257Z,6268.00
2018-02-14T12:25:31.207Z,6660.00
2018-02-14T12:26:31.160Z,6604.00
2018-02-14T12:27:31.112Z,7172.00
2018-02-14T12:28:31.065Z,7832.00
2018-02-14T12:29:31.016Z,8652.00
2018-02-14T12:30:30.964Z,9356.00
2018-02-14T12:31:30.915Z,9200.00
2018-02-14T12:32:30.866Z,9208.00
2018-02-14T12:33:30.817Z,9292.00
2018-02-14T12:34:30.769Z,9520.00